• Join FlightAware (Why Join?)
  • Login
  • US Flag 
01:34AM EST


 

Airport Tracker/Info


-or-


 

Live Flight TrackerFlight Track Log ✈ SKW6492 ✈ 21-Aug-2013 ✈ KDEN - KCOD

Flight Track Log - Related Links

Times and Time Zones

All times are in EDT time to prevent confusion due to time zone crossing. See the SKW6492 flight status page for this flight to view local times or setup timezone preferences in your user account.

Time Position Orientation Groundspeed Altitude Reporting Facility
EDT Latitude Longitude Course Direction KTS MPH feet Rate Location/Type
12:14AM 39.8000 -104.6000 346° North 215 247 7,700  Level Denver TRACON
12:15AM 39.8500 -104.5333 46° Northeast 249 287 8,900 1,200 Climbing Denver TRACON
12:16AM 39.8711 -104.4706 66° East 275 316 9,600 1,260 Climbing Denver Center
12:17AM 40.2708 -104.8029 347° North  Level FlightAware Approximate
12:17AM 39.9336 -104.4008 41° Northeast 318 366 11,000  Level Denver Center
12:18AM 40.3763 -104.8365 346° North  Level FlightAware Approximate
12:18AM 40.0256 -104.4039 359° North 334 384 12,000  Level Denver Center
12:19AM 40.4815 -104.8716 346° North  Level FlightAware Approximate
12:19AM 40.1233 -104.4531 339° North 354 407 13,000  Level Denver Center
12:20AM 40.1939 -104.4950 336° Northwest 364 419 13,800 1,320 Climbing Denver Center
12:21AM 40.3097 -104.5653 335° Northwest 371 427 15,700 1,560 Climbing Denver Center
12:22AM 40.4036 -104.6214 336° Northwest 373 429 17,000 1,140 Climbing Denver Center
12:23AM 40.5053 -104.6817 336° Northwest 373 429 18,100 1,080 Climbing Denver Center
12:24AM 40.5958 -104.7450 332° Northwest 369 425 19,200 960 Climbing Denver Center
12:25AM 40.6781 -104.8311 322° Northwest 378 435 20,100 780 Climbing Denver Center
12:26AM 40.7594 -104.9086 324° Northwest 368 423 20,900 660 Climbing Denver Center
12:27AM 40.8433 -104.9908 323° Northwest 374 430 21,500 480 Climbing Denver Center
12:28AM 40.9281 -105.0783 322° Northwest 385 443 21,900 360 Climbing Denver Center
12:29AM 41.0233 -105.1753 323° Northwest 396 456 22,300 540 Climbing Denver Center
12:30AM 41.1078 -105.2619 322° Northwest 400 460 23,000 720 Climbing Denver Center
12:31AM 41.2064 -105.3631 322° Northwest 400 460 23,800 720 Climbing Denver Center
12:32AM 41.2903 -105.4503 322° Northwest 400 460 24,500 600 Climbing Denver Center
12:33AM 41.3747 -105.5383 322° Northwest 403 464 25,100 660 Climbing Denver Center
12:34AM 41.4722 -105.6383 322° Northwest 397 457 25,900 420 Climbing Denver Center
12:35AM 41.5567 -105.7283 321° Northwest 402 463 26,000  Climbing Denver Center
12:36AM 41.6436 -105.8192 322° Northwest 412 474 26,000  Level Denver Center
12:37AM 41.7492 -105.9292 322° Northwest 424 488 26,000  Level Denver Center
12:38AM 41.8411 -106.0269 322° Northwest 435 501 26,000  Level Denver Center
12:39AM 41.9314 -106.1231 322° Northwest 435 501 26,000  Level Denver Center
12:40AM 42.0358 -106.2319 322° Northwest 429 494 26,000  Level Denver Center
12:41AM 42.1242 -106.3272 321° Northwest 425 489 26,000  Level Denver Center
12:42AM 42.2131 -106.4233 321° Northwest 426 490 26,000  Level Denver Center
12:43AM 42.3189 -106.5367 322° Northwest 435 501 26,000  Level Denver Center
12:44AM 42.4131 -106.6364 322° Northwest 440 506 26,000  Level Denver Center
12:45AM 42.5042 -106.7358 321° Northwest 440 506 26,000  Level Denver Center
12:46AM 42.6111 -106.8533 321° Northwest 442 509 26,000  Level Denver Center
12:47AM 42.7183 -106.9714 321° Northwest 443 510 26,000  Level Denver Center
12:48AM 42.8289 -107.0842 323° Northwest 446 513 26,000  Level Denver Center
12:49AM 42.9094 -107.1547 327° Northwest 449 517 26,000  Level Salt Lake Center
12:50AM 43.0258 -107.2581 327° Northwest 446 513 26,000  Level Salt Lake Center
12:51AM 43.1306 -107.3522 327° Northwest 449 517 26,000  Level Salt Lake Center
12:52AM 43.2333 -107.4467 326° Northwest 447 514 26,000  Level Salt Lake Center
12:53AM 43.3389 -107.5394 327° Northwest 450 518 26,000  Level Salt Lake Center
12:54AM 43.4436 -107.6336 327° Northwest 450 518 26,000  Level Salt Lake Center
12:55AM 43.5469 -107.7289 326° Northwest 447 514 26,000  Level Salt Lake Center
12:56AM 43.6511 -107.8242 327° Northwest 449 517 26,000  Level Salt Lake Center
12:57AM 43.7539 -107.9167 327° Northwest 443 510 26,000 -60 Level Salt Lake Center
12:58AM 43.8572 -108.0131 326° Northwest 446 513 25,900 -1,320 Descending Salt Lake Center
12:59AM 43.9606 -108.1075 327° Northwest 445 512 23,400 -2,580 Descending Salt Lake Center
01:00AM 44.0639 -108.2022 327° Northwest 444 511 20,700 -2,700 Descending Salt Lake Center
01:01AM 44.1631 -108.2958 326° Northwest 436 502 18,000 -2,580 Descending Salt Lake Center
01:02AM 44.2603 -108.3867 326° Northwest 428 493 15,500 -2,220 Descending Salt Lake Center
01:04AM 44.3517 -108.4717 326° Northwest 416 479 13,600 -1,680 Descending Salt Lake Center
01:05AM 44.4375 -108.5525 326° Northwest 395 455 12,100 -1,620 Descending Salt Lake Center
01:06AM 44.5375 -108.6467 326° Northwest 376 433 10,400 -1,500 Descending Salt Lake Center
01:07AM 44.6044 -108.7081 327° Northwest 327 376 9,100 -1,020 Descending Salt Lake Center
01:08AM 44.6431 -108.7772 308° West 279 321 8,400 -780 Descending Salt Lake Center
01:09AM 44.6242 -108.8425 248° West 214 246 7,600 -480 Descending Salt Lake Center
01:10AM 44.5953 -108.8944 232° Southwest 186 214 7,500 -600 Descending Salt Lake Center
01:11AM 44.5686 -108.9417 232° Southwest 170 196 6,500 -840 Descending Salt Lake Center
01:12AM 44.5408 -108.9892 231° Southwest 160 184 5,900 -600 Descending Salt Lake Center